createdAt,value
2018-03-18T00:00:07.609Z,18.67
2018-03-18T00:02:39.792Z,19.77
2018-03-18T00:05:09.039Z,19.17
2018-03-18T00:07:37.806Z,24.70
2018-03-18T00:10:07.253Z,20.67
2018-03-18T00:12:39.063Z,16.90
2018-03-18T00:15:07.487Z,22.13
2018-03-18T00:17:36.795Z,18.73
2018-03-18T00:20:06.294Z,17.67
2018-03-18T00:22:36.207Z,18.93
2018-03-18T00:25:05.501Z,19.20
2018-03-18T00:27:33.924Z,17.77
2018-03-18T00:30:02.310Z,16.67
2018-03-18T00:32:30.741Z,21.40
2018-03-18T00:34:59.890Z,20.70
2018-03-18T00:37:28.311Z,18.70
2018-03-18T00:39:58.355Z,17.13
2018-03-18T00:42:28.092Z,18.90
2018-03-18T00:44:57.321Z,27.53
2018-03-18T00:47:25.912Z,17.83
2018-03-18T00:49:54.370Z,18.47
2018-03-18T00:52:23.615Z,17.20
2018-03-18T00:54:53.016Z,18.10
2018-03-18T00:57:22.776Z,18.03
2018-03-18T00:59:51.266Z,18.53
2018-03-18T01:02:19.688Z,17.27
2018-03-18T01:04:48.999Z,17.60
2018-03-18T01:07:18.493Z,19.33
2018-03-18T01:09:49.422Z,18.83
2018-03-18T01:12:20.718Z,19.60
2018-03-18T01:14:49.230Z,17.17
2018-03-18T01:17:18.449Z,19.43
2018-03-18T01:19:46.866Z,17.93
2018-03-18T01:22:16.338Z,20.40
2018-03-18T01:24:45.629Z,16.63
2018-03-18T01:27:16.562Z,21.40
2018-03-18T01:29:48.662Z,19.97
2018-03-18T01:32:19.984Z,19.10
2018-03-18T01:34:49.258Z,20.47
2018-03-18T01:37:17.874Z,20.73
2018-03-18T01:39:47.543Z,20.13
2018-03-18T01:42:15.931Z,20.50
2018-03-18T01:44:45.996Z,19.17
2018-03-18T01:47:14.660Z,20.33
2018-03-18T01:49:43.001Z,17.63
2018-03-18T01:52:13.146Z,17.90
2018-03-18T01:54:41.496Z,18.00
2018-03-18T01:57:10.848Z,17.77
2018-03-18T01:59:39.776Z,18.40
2018-03-18T02:02:08.133Z,20.27
2018-03-18T02:04:37.994Z,19.57
2018-03-18T02:07:06.404Z,19.00
2018-03-18T02:09:34.841Z,15.60
2018-03-18T02:12:04.285Z,18.17
2018-03-18T02:14:32.679Z,22.13
2018-03-18T02:17:03.519Z,18.17
2018-03-18T02:19:33.472Z,18.90
2018-03-18T02:22:02.186Z,17.37
2018-03-18T02:24:32.198Z,21.30
2018-03-18T02:27:00.606Z,19.93
2018-03-18T02:29:29.500Z,19.13
2018-03-18T02:31:59.590Z,18.40
2018-03-18T02:34:30.638Z,14.83
2018-03-18T02:37:00.674Z,17.47
2018-03-18T02:39:31.427Z,14.77
2018-03-18T02:42:00.557Z,19.10
2018-03-18T02:44:31.051Z,13.40
2018-03-18T02:47:00.551Z,17.37
2018-03-18T02:49:29.737Z,15.23
2018-03-18T02:51:59.099Z,17.03
2018-03-18T02:54:29.446Z,17.47
2018-03-18T02:56:59.238Z,16.67
2018-03-18T02:59:28.061Z,17.23
2018-03-18T03:01:57.737Z,19.87
2018-03-18T03:04:31.040Z,14.23
2018-03-18T03:07:00.059Z,18.43
2018-03-18T03:09:29.885Z,15.03
2018-03-18T03:11:59.199Z,14.33
2018-03-18T03:14:28.450Z,14.80
2018-03-18T03:16:57.657Z,18.50
2018-03-18T03:19:26.969Z,14.87
2018-03-18T03:21:55.646Z,17.63
2018-03-18T03:24:24.311Z,14.07
2018-03-18T03:26:53.663Z,14.77
2018-03-18T03:29:23.315Z,16.27
2018-03-18T03:31:53.007Z,17.83
2018-03-18T03:34:21.334Z,14.87
2018-03-18T03:36:49.712Z,14.00
2018-03-18T03:39:19.111Z,17.47
2018-03-18T03:41:47.587Z,18.20
2018-03-18T03:44:16.934Z,16.43
2018-03-18T03:46:47.378Z,19.10
2018-03-18T03:49:15.883Z,21.17
2018-03-18T03:51:45.000Z,16.73
2018-03-18T03:54:13.915Z,19.97
2018-03-18T03:56:45.481Z,15.33
2018-03-18T03:59:14.397Z,18.87
2018-03-18T04:01:44.156Z,15.47
2018-03-18T04:04:13.703Z,15.10
2018-03-18T04:06:42.663Z,17.73
2018-03-18T04:09:11.693Z,16.73
2018-03-18T04:11:41.037Z,14.63
2018-03-18T04:14:10.330Z,17.17
2018-03-18T04:16:39.500Z,19.37
2018-03-18T04:19:09.960Z,14.30
2018-03-18T04:21:40.641Z,15.23
2018-03-18T04:24:10.172Z,17.80
2018-03-18T04:26:38.956Z,18.90
2018-03-18T04:29:11.072Z,17.80
2018-03-18T04:31:41.141Z,15.80
2018-03-18T04:34:10.419Z,16.73
2018-03-18T04:36:39.581Z,17.67
2018-03-18T04:39:09.718Z,16.87
2018-03-18T04:41:39.735Z,17.97
2018-03-18T04:44:09.216Z,17.97
2018-03-18T04:46:38.540Z,17.47
2018-03-18T04:49:08.414Z,16.17
2018-03-18T04:51:37.338Z,16.60
2018-03-18T04:54:07.051Z,15.50
2018-03-18T04:56:35.458Z,19.03
2018-03-18T04:59:05.508Z,16.67
2018-03-18T05:01:34.772Z,18.10
2018-03-18T05:04:03.903Z,18.00
2018-03-18T05:06:36.942Z,21.33
2018-03-18T05:09:07.963Z,17.30
2018-03-18T05:11:37.974Z,20.77
2018-03-18T05:14:07.200Z,14.63
2018-03-18T05:16:37.895Z,14.57
2018-03-18T05:19:06.485Z,17.57
2018-03-18T05:21:37.171Z,14.97
2018-03-18T05:24:06.467Z,16.43
2018-03-18T05:26:36.305Z,16.97
2018-03-18T05:29:05.836Z,18.00
2018-03-18T05:31:34.220Z,18.37
2018-03-18T05:34:03.619Z,14.00
2018-03-18T05:36:34.492Z,17.57
2018-03-18T05:39:02.859Z,17.87
2018-03-18T05:41:33.250Z,17.30
2018-03-18T05:44:02.576Z,17.93
2018-03-18T05:46:32.574Z,18.43
2018-03-18T05:49:00.986Z,15.50
2018-03-18T05:51:29.471Z,17.10
2018-03-18T05:53:57.851Z,16.70
2018-03-18T05:56:26.842Z,15.90
2018-03-18T05:58:55.971Z,22.20
2018-03-18T06:01:25.614Z,18.30
2018-03-18T06:03:55.287Z,14.73
2018-03-18T06:06:24.525Z,19.23
2018-03-18T06:08:52.957Z,17.87
2018-03-18T06:11:23.181Z,15.90
2018-03-18T06:13:52.886Z,17.83
2018-03-18T06:16:22.667Z,17.93
2018-03-18T06:18:51.670Z,15.30
2018-03-18T06:21:20.043Z,16.47
2018-03-18T06:23:49.551Z,16.50
2018-03-18T06:26:19.275Z,15.47
2018-03-18T06:28:47.772Z,17.30
2018-03-18T06:31:17.581Z,16.17
2018-03-18T06:33:48.194Z,17.27
2018-03-18T06:36:18.835Z,14.73
2018-03-18T06:38:47.215Z,14.83
2018-03-18T06:41:17.023Z,17.20
2018-03-18T06:43:45.817Z,15.43
2018-03-18T06:46:16.748Z,14.63
2018-03-18T06:48:47.201Z,16.93
2018-03-18T06:51:17.412Z,16.93
2018-03-18T06:53:46.685Z,13.70
2018-03-18T06:56:18.346Z,13.67
2018-03-18T06:58:46.719Z,15.80
2018-03-18T07:01:15.863Z,18.47
2018-03-18T07:03:44.510Z,17.43
2018-03-18T07:06:14.389Z,15.57
2018-03-18T07:08:45.433Z,15.57
2018-03-18T07:11:14.731Z,17.97
2018-03-18T07:13:43.842Z,14.03
2018-03-18T07:16:13.000Z,18.00
2018-03-18T07:18:41.735Z,18.07
2018-03-18T07:21:12.831Z,15.53
2018-03-18T07:23:42.624Z,17.40
2018-03-18T07:26:14.329Z,15.57
2018-03-18T07:28:43.748Z,14.43
2018-03-18T07:31:17.241Z,18.00
2018-03-18T07:33:45.658Z,18.43
2018-03-18T07:36:14.959Z,25.80
2018-03-18T07:38:46.653Z,16.43
2018-03-18T07:41:15.874Z,18.87
2018-03-18T07:43:45.219Z,18.63
2018-03-18T07:46:14.308Z,16.67
2018-03-18T07:48:44.081Z,16.30
2018-03-18T07:51:14.292Z,16.90
2018-03-18T07:53:45.267Z,17.90
2018-03-18T07:56:16.975Z,21.57
2018-03-18T07:58:47.099Z,13.50
2018-03-18T08:01:16.499Z,22.67
2018-03-18T08:03:46.757Z,16.27
2018-03-18T08:06:17.295Z,12.67
2018-03-18T08:08:46.218Z,14.63
2018-03-18T08:11:14.836Z,13.13
2018-03-18T08:13:44.003Z,13.97
2018-03-18T08:16:13.254Z,18.23
2018-03-18T08:18:42.782Z,15.23
2018-03-18T08:21:11.348Z,17.47
2018-03-18T08:23:39.680Z,13.53
2018-03-18T08:26:09.736Z,14.53
2018-03-18T08:28:39.895Z,20.13
2018-03-18T08:31:09.758Z,14.30
2018-03-18T08:33:38.148Z,14.83
2018-03-18T08:36:06.840Z,16.10
2018-03-18T08:38:36.719Z,17.77
2018-03-18T08:41:06.407Z,15.23
2018-03-18T08:43:35.668Z,13.53
2018-03-18T08:46:04.705Z,12.63
2018-03-18T08:48:33.946Z,14.57
2018-03-18T08:51:03.112Z,16.03
2018-03-18T08:53:31.927Z,15.67
2018-03-18T08:56:01.102Z,13.23
2018-03-18T08:58:33.480Z,17.20
2018-03-18T09:01:03.426Z,15.67
2018-03-18T09:03:32.969Z,14.33
2018-03-18T09:06:02.952Z,16.30
2018-03-18T09:08:32.392Z,11.83
2018-03-18T09:11:02.372Z,14.77
2018-03-18T09:13:31.565Z,12.70
2018-03-18T09:16:00.821Z,13.97
2018-03-18T09:18:30.158Z,13.37
2018-03-18T09:21:00.735Z,26.73
2018-03-18T09:23:30.079Z,21.10
2018-03-18T09:25:58.492Z,14.67
2018-03-18T09:28:27.325Z,12.57
2018-03-18T09:30:55.757Z,16.47
2018-03-18T09:33:25.150Z,36.33
2018-03-18T09:35:55.234Z,41.03
2018-03-18T09:38:24.580Z,17.87
2018-03-18T09:40:54.164Z,15.83
2018-03-18T09:43:24.373Z,16.00
2018-03-18T09:45:54.054Z,15.07
2018-03-18T09:48:24.848Z,11.50
2018-03-18T09:50:55.597Z,13.40
2018-03-18T09:53:24.458Z,10.97
2018-03-18T09:55:53.982Z,10.40
2018-03-18T09:58:23.535Z,10.73
2018-03-18T10:00:54.205Z,14.77
2018-03-18T10:03:24.199Z,12.70
2018-03-18T10:05:55.857Z,11.10
2018-03-18T10:08:25.589Z,10.87
2018-03-18T10:10:58.741Z,11.67
2018-03-18T10:13:27.745Z,12.93
2018-03-18T10:15:57.656Z,12.33
2018-03-18T10:18:27.148Z,9.87
2018-03-18T10:20:56.866Z,11.20
2018-03-18T10:23:27.898Z,11.03
2018-03-18T10:25:59.060Z,12.10
2018-03-18T10:28:31.199Z,10.47
2018-03-18T10:31:08.909Z,14.03
2018-03-18T10:33:37.999Z,11.30
2018-03-18T10:36:06.704Z,13.07
2018-03-18T10:38:35.034Z,11.03
2018-03-18T10:41:06.531Z,12.73
2018-03-18T10:43:37.928Z,11.10
2018-03-18T10:46:06.746Z,12.43
2018-03-18T10:48:36.488Z,12.77
2018-03-18T10:51:06.296Z,35.50
2018-03-18T10:53:36.413Z,53.00
2018-03-18T10:56:04.844Z,19.13
2018-03-18T10:58:39.749Z,11.50
2018-03-18T11:01:19.314Z,11.63
2018-03-18T11:03:55.137Z,13.60
2018-03-18T11:06:27.695Z,13.53
2018-03-18T11:08:56.838Z,11.37
2018-03-18T11:11:27.332Z,14.57
2018-03-18T11:13:56.712Z,12.50
2018-03-18T11:16:25.372Z,11.63
2018-03-18T11:18:53.752Z,10.30
2018-03-18T11:21:24.512Z,12.10
2018-03-18T11:23:54.636Z,14.10
2018-03-18T11:26:24.773Z,12.27
2018-03-18T11:28:54.059Z,12.63
2018-03-18T11:31:23.087Z,12.60
2018-03-18T11:33:51.451Z,14.67
2018-03-18T11:36:21.717Z,11.67
2018-03-18T11:38:50.380Z,13.97
2018-03-18T11:41:19.193Z,10.53
2018-03-18T11:43:48.682Z,10.60
2018-03-18T11:46:21.728Z,15.10
2018-03-18T11:48:51.319Z,11.47
2018-03-18T11:51:22.578Z,8.87
2018-03-18T11:53:51.681Z,11.03
2018-03-18T11:56:20.564Z,14.97
2018-03-18T11:58:49.726Z,11.47
2018-03-18T12:01:18.316Z,13.80
2018-03-18T12:03:47.116Z,11.67
2018-03-18T12:06:16.714Z,10.80
2018-03-18T12:08:56.928Z,10.67
2018-03-18T12:11:25.908Z,11.07
2018-03-18T12:13:54.502Z,10.87
2018-03-18T12:16:22.903Z,10.23
2018-03-18T12:18:52.205Z,10.33
2018-03-18T12:21:20.631Z,11.77
2018-03-18T12:23:49.112Z,13.43
2018-03-18T12:26:18.082Z,12.70
2018-03-18T12:28:47.341Z,11.83
2018-03-18T12:31:16.926Z,10.20
2018-03-18T12:33:45.258Z,14.67
2018-03-18T12:36:16.279Z,7.87
2018-03-18T12:38:46.327Z,17.40
2018-03-18T12:41:14.707Z,9.50
2018-03-18T12:43:43.583Z,9.73
2018-03-18T12:46:12.153Z,9.60
2018-03-18T12:48:40.484Z,8.53
2018-03-18T12:51:09.765Z,13.80
2018-03-18T12:53:38.714Z,9.20
2018-03-18T12:56:09.855Z,11.73
2018-03-18T12:58:38.801Z,9.23
2018-03-18T13:01:07.635Z,9.57
2018-03-18T13:03:37.708Z,7.97
2018-03-18T13:06:06.572Z,10.67
2018-03-18T13:08:35.866Z,10.00
2018-03-18T13:11:04.252Z,10.43
2018-03-18T13:13:34.348Z,14.57
2018-03-18T13:16:02.712Z,8.80
2018-03-18T13:18:31.407Z,10.43
2018-03-18T13:20:59.887Z,9.23
2018-03-18T13:23:29.138Z,12.43
2018-03-18T13:25:57.490Z,13.20
2018-03-18T13:28:26.673Z,14.10
2018-03-18T13:30:55.348Z,13.87
2018-03-18T13:33:25.178Z,14.37
2018-03-18T13:35:54.480Z,30.70
2018-03-18T13:38:23.135Z,11.00
2018-03-18T13:40:51.500Z,8.53
2018-03-18T13:43:20.009Z,8.73
2018-03-18T13:45:49.157Z,7.57
2018-03-18T13:48:18.298Z,8.03
2018-03-18T13:50:47.379Z,9.80
2018-03-18T13:53:16.320Z,8.80
2018-03-18T13:55:45.477Z,8.67
2018-03-18T13:58:14.421Z,7.23
2018-03-18T14:00:42.845Z,8.20
2018-03-18T14:03:11.257Z,8.57
2018-03-18T14:05:39.640Z,9.17
2018-03-18T14:08:08.058Z,11.50
2018-03-18T14:10:40.233Z,8.17
2018-03-18T14:13:08.872Z,11.50
2018-03-18T14:15:38.988Z,9.53
2018-03-18T14:18:07.513Z,8.30
2018-03-18T14:20:35.841Z,7.73
2018-03-18T14:23:04.190Z,8.47
2018-03-18T14:25:33.454Z,8.80
2018-03-18T14:28:02.481Z,8.50
2018-03-18T14:30:34.807Z,10.77
2018-03-18T14:33:03.627Z,9.03
2018-03-18T14:35:32.716Z,10.33
2018-03-18T14:38:01.051Z,14.07
2018-03-18T14:40:30.337Z,10.53
2018-03-18T14:42:59.699Z,11.60
2018-03-18T14:45:32.106Z,8.40
2018-03-18T14:48:01.095Z,9.63
2018-03-18T14:50:32.351Z,8.70
2018-03-18T14:53:00.678Z,13.73
2018-03-18T14:55:29.104Z,10.57
2018-03-18T14:57:57.542Z,6.50
2018-03-18T15:00:27.101Z,11.37
2018-03-18T15:02:55.437Z,10.73
2018-03-18T15:05:23.802Z,13.83
2018-03-18T15:07:52.147Z,12.53
2018-03-18T15:10:21.966Z,7.40
2018-03-18T15:12:50.290Z,7.60
2018-03-18T15:15:18.663Z,14.07
2018-03-18T15:17:47.634Z,7.53
2018-03-18T15:20:16.083Z,6.63
2018-03-18T15:22:44.435Z,9.80
2018-03-18T15:25:13.327Z,7.67
2018-03-18T15:27:43.966Z,10.47
2018-03-18T15:30:12.290Z,8.00
2018-03-18T15:32:41.542Z,7.80
2018-03-18T15:35:09.876Z,8.93
2018-03-18T15:37:38.280Z,8.07
2018-03-18T15:40:08.520Z,8.47
2018-03-18T15:42:43.976Z,9.30
2018-03-18T15:45:12.330Z,8.17
2018-03-18T15:47:42.192Z,10.73
2018-03-18T15:50:12.191Z,9.77
2018-03-18T15:52:40.549Z,10.47
2018-03-18T15:55:11.589Z,6.57
2018-03-18T15:57:40.247Z,9.93
2018-03-18T16:00:09.220Z,7.93
2018-03-18T16:02:37.846Z,9.93
2018-03-18T16:05:06.663Z,9.40
2018-03-18T16:07:35.070Z,10.47
2018-03-18T16:10:05.253Z,10.10
2018-03-18T16:12:34.999Z,18.13
2018-03-18T16:15:03.386Z,17.90
2018-03-18T16:17:32.602Z,21.77
2018-03-18T16:20:01.071Z,22.80
2018-03-18T16:22:29.772Z,14.33
2018-03-18T16:24:59.493Z,13.10
2018-03-18T16:27:29.103Z,15.53
2018-03-18T16:30:11.509Z,13.07
2018-03-18T16:32:41.702Z,10.07
2018-03-18T16:35:11.216Z,8.93
2018-03-18T16:37:39.614Z,9.93
2018-03-18T16:40:09.039Z,17.53
2018-03-18T16:42:40.229Z,15.93
2018-03-18T16:45:12.058Z,9.83
2018-03-18T16:47:40.476Z,19.50
2018-03-18T16:50:09.681Z,10.07
2018-03-18T16:52:39.055Z,16.73
2018-03-18T16:55:11.291Z,7.07
2018-03-18T16:57:40.385Z,8.80
2018-03-18T17:00:08.719Z,9.50
2018-03-18T17:02:37.530Z,8.37
2018-03-18T17:05:07.066Z,10.43
2018-03-18T17:07:37.004Z,6.40
2018-03-18T17:10:05.390Z,6.67
2018-03-18T17:12:34.659Z,7.80
2018-03-18T17:15:05.156Z,7.53
2018-03-18T17:17:33.487Z,8.67
2018-03-18T17:20:02.068Z,5.63
2018-03-18T17:22:31.500Z,14.87
2018-03-18T17:25:00.771Z,7.93
2018-03-18T17:27:31.639Z,9.97
2018-03-18T17:30:01.523Z,8.67
2018-03-18T17:32:31.143Z,6.93
2018-03-18T17:35:00.312Z,7.40
2018-03-18T17:37:29.070Z,6.67
2018-03-18T17:39:59.003Z,10.70
2018-03-18T17:42:28.675Z,8.27
2018-03-18T17:45:12.171Z,9.47
2018-03-18T17:47:54.371Z,9.77
2018-03-18T17:50:38.144Z,8.23
2018-03-18T17:53:18.138Z,11.83
2018-03-18T17:55:48.857Z,6.50
2018-03-18T17:58:17.397Z,6.07
2018-03-18T18:00:47.224Z,6.97
2018-03-18T18:03:15.888Z,6.97
2018-03-18T18:05:45.551Z,5.63
2018-03-18T18:08:15.615Z,7.60
2018-03-18T18:10:46.333Z,5.67
2018-03-18T18:13:16.326Z,7.60
2018-03-18T18:15:48.560Z,7.90
2018-03-18T18:18:17.808Z,7.93
2018-03-18T18:20:47.592Z,6.73
2018-03-18T18:23:17.098Z,6.67
2018-03-18T18:25:50.592Z,7.07
2018-03-18T18:28:20.986Z,6.60
2018-03-18T18:30:56.764Z,8.63
2018-03-18T18:33:27.150Z,11.87
2018-03-18T18:35:56.405Z,6.80
2018-03-18T18:38:25.016Z,13.07
2018-03-18T18:40:54.498Z,10.13
2018-03-18T18:43:22.880Z,7.67
2018-03-18T18:45:52.481Z,6.07
2018-03-18T18:48:21.876Z,9.43
2018-03-18T18:50:52.046Z,5.87
2018-03-18T18:53:22.670Z,12.10
2018-03-18T18:55:51.792Z,6.33
2018-03-18T18:58:20.159Z,8.37
2018-03-18T19:00:49.388Z,6.27
2018-03-18T19:03:19.684Z,7.63
2018-03-18T19:05:50.073Z,11.90
2018-03-18T19:08:19.544Z,8.60
2018-03-18T19:10:48.833Z,10.67
2018-03-18T19:13:17.622Z,6.70
2018-03-18T19:15:46.886Z,7.47
2018-03-18T19:18:15.971Z,9.17
2018-03-18T19:20:44.308Z,6.20
2018-03-18T19:23:12.972Z,8.93
2018-03-18T19:25:42.162Z,6.27
2018-03-18T19:28:12.453Z,7.23
2018-03-18T19:30:40.786Z,7.73
2018-03-18T19:33:10.013Z,13.07
2018-03-18T19:35:39.355Z,10.53
2018-03-18T19:38:07.761Z,7.10
2018-03-18T19:40:37.135Z,11.03
2018-03-18T19:43:05.918Z,8.37
2018-03-18T19:45:34.307Z,9.60
2018-03-18T19:48:03.745Z,8.67
2018-03-18T19:50:32.152Z,12.37
2018-03-18T19:53:00.531Z,9.03
2018-03-18T19:55:29.189Z,8.53
2018-03-18T19:57:59.199Z,8.17
2018-03-18T20:00:28.851Z,7.80
2018-03-18T20:02:59.634Z,11.37
2018-03-18T20:05:29.211Z,9.73
2018-03-18T20:07:59.662Z,10.10
2018-03-18T20:10:29.644Z,10.23
2018-03-18T20:12:57.997Z,10.93
2018-03-18T20:15:26.681Z,9.13
2018-03-18T20:17:55.795Z,8.70
2018-03-18T20:20:24.197Z,6.97
2018-03-18T20:22:52.531Z,8.97
2018-03-18T20:25:20.900Z,6.37
2018-03-18T20:27:51.327Z,14.00
2018-03-18T20:30:23.116Z,8.00
2018-03-18T20:32:51.442Z,6.83
2018-03-18T20:35:20.797Z,11.87
2018-03-18T20:37:51.355Z,10.67
2018-03-18T20:40:19.792Z,7.53
2018-03-18T20:42:50.374Z,7.90
2018-03-18T20:45:19.569Z,8.20
2018-03-18T20:47:48.784Z,8.07
2018-03-18T20:50:17.111Z,7.73
2018-03-18T20:52:46.287Z,6.27
2018-03-18T20:55:14.618Z,7.97
2018-03-18T20:57:43.035Z,11.63
2018-03-18T21:00:13.771Z,8.73
2018-03-18T21:02:42.152Z,12.10
2018-03-18T21:05:10.506Z,9.43
2018-03-18T21:07:41.039Z,10.20
2018-03-18T21:10:10.176Z,7.60
2018-03-18T21:12:39.254Z,9.87
2018-03-18T21:15:07.587Z,8.67
2018-03-18T21:17:37.824Z,11.27
2018-03-18T21:20:06.172Z,9.37
2018-03-18T21:22:36.251Z,7.37
2018-03-18T21:25:06.887Z,8.00
2018-03-18T21:27:36.599Z,7.77
2018-03-18T21:30:06.633Z,8.43
2018-03-18T21:32:35.272Z,7.20
2018-03-18T21:35:03.612Z,7.90
2018-03-18T21:37:31.979Z,8.40
2018-03-18T21:40:00.381Z,7.77
2018-03-18T21:42:28.732Z,7.47
2018-03-18T21:44:58.137Z,9.90
2018-03-18T21:47:26.611Z,12.20
2018-03-18T21:49:54.957Z,13.63
2018-03-18T21:52:23.320Z,14.67
2018-03-18T21:54:51.653Z,10.73
2018-03-18T21:57:20.450Z,10.80
2018-03-18T21:59:50.482Z,8.90
2018-03-18T22:02:19.734Z,8.27
2018-03-18T22:04:48.550Z,9.30
2018-03-18T22:07:17.829Z,11.67
2018-03-18T22:09:48.831Z,10.17
2018-03-18T22:12:17.169Z,11.07
2018-03-18T22:14:45.574Z,9.10
2018-03-18T22:17:17.364Z,9.33
2018-03-18T22:19:46.336Z,10.60
2018-03-18T22:22:14.933Z,10.77
2018-03-18T22:24:44.985Z,10.97
2018-03-18T22:27:13.438Z,9.93
2018-03-18T22:29:41.808Z,13.33
2018-03-18T22:32:10.163Z,10.57
2018-03-18T22:34:39.725Z,9.73
2018-03-18T22:37:08.118Z,14.67
2018-03-18T22:39:37.255Z,9.27
2018-03-18T22:42:05.802Z,8.30
2018-03-18T22:44:34.996Z,9.70
2018-03-18T22:47:03.362Z,9.03
2018-03-18T22:49:32.480Z,8.43
2018-03-18T22:52:01.848Z,9.37
2018-03-18T22:54:30.253Z,7.83
2018-03-18T22:56:59.336Z,11.57
2018-03-18T22:59:31.186Z,9.37
2018-03-18T23:02:00.339Z,11.83
2018-03-18T23:04:28.707Z,8.57
2018-03-18T23:06:59.975Z,8.90
2018-03-18T23:09:28.535Z,9.50
2018-03-18T23:11:56.946Z,8.87
2018-03-18T23:14:27.750Z,10.90
2018-03-18T23:16:56.404Z,11.33
2018-03-18T23:19:25.049Z,9.90
2018-03-18T23:21:53.424Z,15.37
2018-03-18T23:24:21.759Z,9.60
2018-03-18T23:26:51.077Z,9.53
2018-03-18T23:29:19.716Z,7.30
2018-03-18T23:31:50.620Z,9.07
2018-03-18T23:34:19.479Z,8.27
2018-03-18T23:36:48.311Z,12.40
2018-03-18T23:39:17.395Z,8.17
2018-03-18T23:41:46.745Z,9.73
2018-03-18T23:44:15.083Z,8.93
2018-03-18T23:46:43.877Z,11.20
2018-03-18T23:49:14.976Z,10.87
2018-03-18T23:51:46.665Z,13.07
2018-03-18T23:54:17.481Z,11.20
2018-03-18T23:56:47.558Z,7.30
2018-03-18T23:59:17.231Z,10.90
